Time;durP1;ratioP1;P1;durP2;ratioP2;P2;SDS_P1;SDS_P2;PMS_P1;PMS_P2;Temp;Humidity;BMP_temperature;BMP_pressure;BME280_temperature;BME280_humidity;BME280_pressure;Samples;Min_cycle;Max_cycle;Signal;HPM_P1;HPM_P2
2024/01/02 00:01:43;;;;;;;2.90;1.10;;;;;;;5.28;76.76;94871.03;5019421;28;20659;-77
2024/01/02 00:04:09;;;;;;;3.83;1.70;;;;;;;5.33;76.81;94860.38;5007558;28;20167;-77
2024/01/02 00:06:34;;;;;;;4.80;1.50;;;;;;;5.31;76.80;94857.94;5013178;28;20270;-77
2024/01/02 00:08:59;;;;;;;3.43;1.47;;;;;;;5.37;76.62;94852.22;5017169;28;20974;-78
2024/01/02 00:11:25;;;;;;;4.63;1.23;;;;;;;5.31;76.86;94852.78;5006012;28;20268;-77
2024/01/02 00:13:50;;;;;;;5.50;1.37;;;;;;;5.30;76.95;94851.16;5019862;28;20220;-77
2024/01/02 00:16:17;;;;;;;4.43;1.20;;;;;;;5.34;76.81;94842.22;5020714;28;20186;-77
2024/01/02 00:18:42;;;;;;;5.87;1.17;;;;;;;5.21;77.30;94840.81;5022363;28;20194;-78
2024/01/02 00:21:07;;;;;;;4.43;1.37;;;;;;;5.34;77.16;94838.81;5004153;28;20189;-77
2024/01/02 00:23:33;;;;;;;1.97;0.90;;;;;;;5.20;77.45;94831.47;5022381;28;20266;-77
2024/01/02 00:25:58;;;;;;;3.10;1.13;;;;;;;5.40;76.91;94828.81;5000492;28;20320;-76
2024/01/02 00:28:24;;;;;;;4.03;1.20;;;;;;;5.49;76.74;94810.94;5003944;28;20201;-76
2024/01/02 00:30:49;;;;;;;2.80;0.93;;;;;;;5.40;76.71;94810.78;5022821;28;20549;-77
2024/01/02 00:33:14;;;;;;;2.07;1.20;;;;;;;5.34;77.05;94802.78;5002733;28;20203;-77
2024/01/02 00:35:41;;;;;;;5.07;1.03;;;;;;;5.38;76.73;94797.22;4997459;28;20179;-77
2024/01/02 00:38:08;;;;;;;1.80;1.10;;;;;;;5.45;76.49;94788.97;5002324;28;20211;-77
2024/01/02 00:40:33;;;;;;;2.17;1.20;;;;;;;5.46;76.68;94786.25;5021388;28;20183;-77
2024/01/02 00:42:59;;;;;;;3.30;0.97;;;;;;;5.49;76.49;94774.88;4999252;28;20243;-76
2024/01/02 00:45:24;;;;;;;2.70;1.03;;;;;;;5.54;76.15;94777.84;5022543;28;20212;-77
2024/01/02 00:47:51;;;;;;;1.23;0.80;;;;;;;5.40;77.05;94766.19;5020053;28;20210;-77
2024/01/02 00:50:17;;;;;;;1.13;0.90;;;;;;;5.53;76.67;94765.91;5003868;28;20263;-76
2024/01/02 00:52:43;;;;;;;1.27;0.80;;;;;;;5.36;77.20;94754.53;5020976;28;20180;-76
2024/01/02 00:55:08;;;;;;;3.13;1.00;;;;;;;5.59;76.59;94752.50;5023922;28;20269;-77
2024/01/02 00:57:34;;;;;;;1.87;0.90;;;;;;;5.51;76.90;94754.94;5018613;28;20208;-77
2024/01/02 00:59:59;;;;;;;1.47;0.90;;;;;;;5.62;76.62;94750.47;5002219;28;20217;-78
2024/01/02 01:02:25;;;;;;;1.50;0.60;;;;;;;5.61;76.84;94748.03;5021235;28;20178;-76
2024/01/02 01:04:50;;;;;;;3.43;1.50;;;;;;;5.73;76.44;94753.84;5004778;28;20213;-78
2024/01/02 01:07:16;;;;;;;2.30;0.80;;;;;;;5.68;76.38;94749.91;5002843;28;20212;-77
2024/01/02 01:09:41;;;;;;;3.60;0.90;;;;;;;5.58;76.91;94749.13;5020376;28;20187;-76
2024/01/02 01:12:06;;;;;;;3.40;0.90;;;;;;;5.77;76.45;94750.84;5003228;28;20195;-78
2024/01/02 01:14:32;;;;;;;1.67;0.80;;;;;;;5.76;76.55;94744.09;5022207;28;20211;-77
2024/01/02 01:16:58;;;;;;;2.73;0.70;;;;;;;5.84;76.46;94754.50;5002341;28;20206;-77
2024/01/02 01:19:24;;;;;;;3.47;0.97;;;;;;;5.82;76.47;94735.78;5020892;28;20186;-77
2024/01/02 01:21:49;;;;;;;1.67;0.90;;;;;;;5.87;76.51;94733.63;5019943;28;20206;-78
2024/01/02 01:24:14;;;;;;;1.27;0.60;;;;;;;5.76;76.92;94731.22;5021665;28;20263;-77
2024/01/02 01:26:40;;;;;;;2.30;0.90;;;;;;;5.85;77.30;94724.41;5023175;28;20190;-77
2024/01/02 01:29:05;;;;;;;2.87;0.90;;;;;;;5.87;77.16;94722.50;5027215;28;20203;-77
2024/01/02 01:31:31;;;;;;;3.47;0.77;;;;;;;5.87;77.68;94712.19;5004562;28;20187;-77
2024/01/02 01:33:56;;;;;;;1.80;0.93;;;;;;;5.86;77.91;94713.97;5007032;28;20206;-78
2024/01/02 01:36:22;;;;;;;2.00;0.70;;;;;;;5.77;79.01;94712.22;5022850;28;20179;-77
2024/01/02 01:38:47;;;;;;;2.20;0.70;;;;;;;5.80;79.33;94703.38;5010048;28;20226;-78
2024/01/02 01:41:13;;;;;;;3.47;0.70;;;;;;;5.90;79.50;94706.75;5025544;28;20862;-77
2024/01/02 01:43:38;;;;;;;3.30;0.67;;;;;;;5.94;79.36;94703.00;5025079;28;20257;-78
2024/01/02 01:46:05;;;;;;;2.30;0.50;;;;;;;5.86;80.49;94701.06;5025714;28;20669;-77
2024/01/02 01:48:30;;;;;;;3.80;0.60;;;;;;;5.79;81.45;94694.84;5008341;28;20211;-78
2024/01/02 01:50:56;;;;;;;1.57;0.50;;;;;;;5.69;82.48;94692.28;5023436;28;20217;-77
2024/01/02 01:53:22;;;;;;;2.20;0.60;;;;;;;5.79;82.80;94692.28;5005729;28;20200;-78
2024/01/02 01:55:47;;;;;;;2.50;0.60;;;;;;;5.81;82.98;94687.78;5026036;28;20175;-78
2024/01/02 01:58:13;;;;;;;1.37;0.50;;;;;;;5.69;84.51;94683.75;5024189;28;20214;-78
2024/01/02 02:00:38;;;;;;;0.50;0.50;;;;;;;5.71;84.73;94675.88;5006803;28;20183;-77
2024/01/02 02:03:04;;;;;;;0.73;0.70;;;;;;;5.82;84.68;94668.78;5008965;28;20181;-77
2024/01/02 02:05:30;;;;;;;0.70;0.40;;;;;;;5.92;84.31;94661.91;5025543;28;20235;-76
2024/01/02 02:07:55;;;;;;;1.37;0.50;;;;;;;5.58;86.12;94668.47;5004670;28;20342;-76
2024/01/02 02:10:21;;;;;;;2.00;0.77;;;;;;;5.93;84.77;94657.56;5023686;28;20196;-77
2024/01/02 02:12:46;;;;;;;1.10;0.50;;;;;;;5.87;84.97;94652.94;5007527;28;20183;-77
2024/01/02 02:15:12;;;;;;;1.03;0.50;;;;;;;5.92;84.98;94649.03;5025493;28;20187;-78
2024/01/02 02:17:37;;;;;;;0.63;0.47;;;;;;;5.86;85.31;94643.59;5021768;28;20232;-77
2024/01/02 02:20:03;;;;;;;2.03;0.60;;;;;;;5.58;87.25;94645.28;5025824;28;20211;-78
2024/01/02 02:22:37;;;;;;;0.93;0.50;;;;;;;5.66;86.95;94638.50;5023331;28;20190;-78
2024/01/02 02:25:03;;;;;;;3.57;0.60;;;;;;;5.84;86.34;94625.69;5023273;28;20194;-76
2024/01/02 02:27:30;;;;;;;1.50;0.50;;;;;;;5.73;87.34;94619.88;5025053;28;20692;-77
2024/01/02 02:29:55;;;;;;;0.93;0.43;;;;;;;5.77;86.69;94613.50;5007901;28;20191;-78
2024/01/02 02:32:21;;;;;;;1.30;0.50;;;;;;;5.73;87.23;94596.69;5006895;28;20686;-78
2024/01/02 02:34:47;;;;;;;0.70;0.50;;;;;;;5.78;87.63;94595.31;5021651;28;20206;-77
2024/01/02 02:37:12;;;;;;;1.47;0.67;;;;;;;5.68;88.29;94590.22;5024315;28;20214;-78
2024/01/02 02:39:37;;;;;;;1.10;1.00;;;;;;;5.75;87.98;94582.75;5024541;28;20191;-78
2024/01/02 02:42:04;;;;;;;1.23;0.67;;;;;;;5.61;88.19;94576.28;5022288;28;20213;-77
2024/01/02 02:44:29;;;;;;;0.77;0.60;;;;;;;5.75;87.75;94575.00;5022333;28;20173;-77
2024/01/02 02:46:55;;;;;;;1.60;0.50;;;;;;;5.91;87.42;94564.91;5006351;28;20664;-77
2024/01/02 02:49:20;;;;;;;1.00;0.50;;;;;;;5.93;87.45;94575.91;5025484;28;20189;-77
2024/01/02 02:51:46;;;;;;;0.50;0.50;;;;;;;5.99;87.67;94581.44;5006615;28;20575;-77
2024/01/02 02:54:11;;;;;;;1.10;0.50;;;;;;;6.01;87.56;94576.94;5025442;28;20278;-77
2024/01/02 02:56:36;;;;;;;0.50;0.50;;;;;;;5.78;88.96;94573.91;5023371;28;20618;-78
2024/01/02 02:59:02;;;;;;;1.30;0.47;;;;;;;5.70;89.70;94569.47;5024304;28;20191;-78
2024/01/02 03:01:28;;;;;;;0.87;0.50;;;;;;;5.78;90.01;94559.25;5038190;28;20218;-77
2024/01/02 03:03:53;;;;;;;1.17;0.60;;;;;;;5.88;89.06;94547.13;5027162;28;20179;-77
2024/01/02 03:06:19;;;;;;;1.40;0.50;;;;;;;5.72;90.09;94543.56;5023850;28;20236;-78
2024/01/02 03:08:44;;;;;;;1.00;0.70;;;;;;;5.57;91.52;94540.66;5004630;28;20294;-78
2024/01/02 03:11:09;;;;;;;1.57;0.63;;;;;;;5.68;91.55;94528.41;5022709;28;20186;-77
2024/01/02 03:13:35;;;;;;;1.50;0.53;;;;;;;5.69;91.19;94524.88;5008945;28;20199;-77
2024/01/02 03:16:00;;;;;;;1.77;0.70;;;;;;;5.71;91.54;94516.97;5007120;28;20241;-77
2024/01/02 03:18:25;;;;;;;0.53;0.40;;;;;;;5.71;91.59;94506.69;5022420;28;20198;-77
2024/01/02 03:20:51;;;;;;;2.20;0.50;;;;;;;5.65;91.90;94502.09;5004604;28;20191;-77
2024/01/02 03:23:16;;;;;;;0.70;0.50;;;;;;;5.58;92.13;94493.34;5023637;28;20183;-77
2024/01/02 03:25:41;;;;;;;1.43;0.50;;;;;;;5.68;92.05;94487.19;5004685;28;20191;-77
2024/01/02 03:28:07;;;;;;;1.43;0.40;;;;;;;5.76;91.85;94486.47;5023867;28;20203;-78
2024/01/02 03:30:33;;;;;;;0.77;0.47;;;;;;;5.75;92.27;94477.13;5006144;28;20198;-77
2024/01/02 03:32:58;;;;;;;0.97;0.50;;;;;;;5.87;91.58;94473.38;5023480;28;20210;-78
2024/01/02 03:35:24;;;;;;;1.03;0.57;;;;;;;5.71;92.27;94474.97;5022463;28;20190;-77
2024/01/02 03:37:49;;;;;;;0.87;0.40;;;;;;;5.49;93.29;94466.69;5024595;28;20206;-77
2024/01/02 03:40:15;;;;;;;1.23;0.53;;;;;;;5.67;92.39;94471.88;5024352;28;20211;-77
2024/01/02 03:42:40;;;;;;;0.63;0.40;;;;;;;5.66;92.71;94463.34;5021028;28;20186;-78
2024/01/02 03:45:06;;;;;;;0.67;0.40;;;;;;;5.68;93.16;94451.13;5006120;28;20218;-77
2024/01/02 03:47:32;;;;;;;0.47;0.47;;;;;;;5.84;92.03;94457.41;5022237;28;20578;-77
2024/01/02 03:49:57;;;;;;;0.40;0.40;;;;;;;5.71;92.39;94455.16;5021974;28;20191;-77
2024/01/02 03:52:23;;;;;;;2.20;0.50;;;;;;;5.63;92.89;94444.78;5020830;28;20217;-78
2024/01/02 03:54:48;;;;;;;0.23;0.23;;;;;;;5.43;93.88;94441.50;5021617;28;20257;-77
2024/01/02 03:57:14;;;;;;;0.40;0.40;;;;;;;5.44;93.84;94434.56;5022680;28;20215;-78
2024/01/02 03:59:39;;;;;;;0.40;0.30;;;;;;;5.53;93.08;94424.22;5003876;28;20286;-77
2024/01/02 04:02:05;;;;;;;0.60;0.40;;;;;;;5.57;93.17;94424.75;5004102;28;20198;-78
2024/01/02 04:04:31;;;;;;;0.30;0.30;;;;;;;5.64;92.96;94425.78;5026027;28;20182;-78
2024/01/02 04:06:56;;;;;;;1.23;0.40;;;;;;;5.56;93.70;94416.19;5021596;28;20291;-77
2024/01/02 04:09:21;;;;;;;0.27;0.27;;;;;;;5.49;93.17;94422.91;5003654;28;20182;-78
2024/01/02 04:11:48;;;;;;;0.77;0.37;;;;;;;5.31;94.80;94412.56;5020790;28;20200;-77
2024/01/02 04:14:13;;;;;;;0.20;0.20;;;;;;;5.38;95.08;94402.47;5025853;28;20234;-77
2024/01/02 04:16:38;;;;;;;0.57;0.40;;;;;;;5.46;94.24;94389.69;5020087;28;20183;-77
2024/01/02 04:19:04;;;;;;;0.60;0.30;;;;;;;5.40;94.47;94385.97;5022486;28;20187;-77
2024/01/02 04:21:29;;;;;;;0.47;0.30;;;;;;;5.44;94.50;94375.38;5021593;28;20187;-77
2024/01/02 04:23:54;;;;;;;0.63;0.50;;;;;;;5.42;94.91;94369.56;5019558;28;20198;-77
2024/01/02 04:26:20;;;;;;;0.50;0.50;;;;;;;5.37;94.64;94365.63;5021308;28;20230;-77
2024/01/02 04:28:45;;;;;;;0.57;0.40;;;;;;;5.39;95.53;94356.03;5024180;28;20198;-77
2024/01/02 04:31:11;;;;;;;0.30;0.30;;;;;;;5.56;93.71;94344.09;5022701;28;20257;-77
2024/01/02 04:33:36;;;;;;;0.60;0.30;;;;;;;5.57;94.09;94345.75;5018905;28;20195;-77
2024/01/02 04:36:01;;;;;;;0.30;0.30;;;;;;;5.39;94.95;94338.00;5002988;28;20218;-78
2024/01/02 04:38:27;;;;;;;1.20;0.40;;;;;;;5.37;93.77;94336.50;5023369;28;20217;-77
2024/01/02 04:40:52;;;;;;;0.30;0.30;;;;;;;5.38;94.84;94331.22;5022110;28;20187;-77
2024/01/02 04:43:17;;;;;;;0.33;0.33;;;;;;;5.37;94.64;94342.47;5019679;28;20186;-77
2024/01/02 04:45:43;;;;;;;0.30;0.30;;;;;;;5.44;94.31;94324.69;5021011;28;20214;-76
2024/01/02 04:48:08;;;;;;;0.20;0.20;;;;;;;5.25;95.13;94310.16;5005872;28;20214;-77
2024/01/02 04:50:34;;;;;;;0.20;0.20;;;;;;;5.44;95.15;94316.94;5021916;28;20206;-78
2024/01/02 04:52:59;;;;;;;0.30;0.20;;;;;;;5.28;95.17;94320.16;5019206;28;20179;-77
2024/01/02 04:55:24;;;;;;;0.20;0.20;;;;;;;5.64;93.91;94309.88;5021571;28;20190;-76
2024/01/02 04:57:50;;;;;;;0.20;0.20;;;;;;;5.41;94.42;94306.97;5007437;28;20210;-78
2024/01/02 05:00:15;;;;;;;1.60;0.20;;;;;;;5.26;94.93;94303.25;5024640;28;20190;-77
2024/01/02 05:02:41;;;;;;;0.10;0.10;;;;;;;5.25;94.90;94289.56;5009259;28;20216;-77
2024/01/02 05:05:06;;;;;;;1.40;0.20;;;;;;;5.27;94.61;94292.81;5027861;28;20206;-77
2024/01/02 05:07:32;;;;;;;0.10;0.10;;;;;;;5.30;94.77;94282.25;5022467;28;20211;-77
2024/01/02 05:09:57;;;;;;;0.53;0.20;;;;;;;5.43;94.66;94278.47;5022830;28;20191;-76
2024/01/02 05:12:23;;;;;;;0.20;0.20;;;;;;;5.41;94.72;94270.91;5023524;28;20187;-77
2024/01/02 05:14:48;;;;;;;0.40;0.20;;;;;;;5.46;94.67;94265.31;5025695;28;20345;-78
2024/01/02 05:17:14;;;;;;;0.20;0.20;;;;;;;5.47;94.79;94266.91;5007491;28;20218;-78
2024/01/02 05:19:39;;;;;;;0.73;0.30;;;;;;;5.36;95.02;94268.75;5024306;28;20221;-77
2024/01/02 05:22:04;;;;;;;0.10;0.10;;;;;;;5.52;95.07;94264.72;5024944;28;20669;-78
2024/01/02 05:24:30;;;;;;;0.30;0.30;;;;;;;5.50;94.77;94256.34;5006727;28;20191;-77
2024/01/02 05:26:56;;;;;;;0.20;0.20;;;;;;;5.45;94.77;94263.69;5021459;28;20206;-78
2024/01/02 05:29:21;;;;;;;0.30;0.30;;;;;;;5.50;95.02;94264.06;5009238;28;20190;-77
2024/01/02 05:31:46;;;;;;;0.20;0.20;;;;;;;5.55;94.49;94254.13;5023933;28;20218;-77
2024/01/02 05:34:12;;;;;;;0.73;0.20;;;;;;;5.74;94.41;94251.38;5014823;28;20222;-76
2024/01/02 05:36:37;;;;;;;0.20;0.20;;;;;;;5.36;95.68;94249.94;5030581;28;20192;-78
2024/01/02 05:39:02;;;;;;;0.57;0.33;;;;;;;5.55;95.81;94242.03;5032627;28;20203;-77
2024/01/02 05:41:28;;;;;;;0.50;0.30;;;;;;;5.65;95.51;94241.97;5033434;28;20191;-76
2024/01/02 05:43:53;;;;;;;2.00;0.40;;;;;;;5.65;95.43;94250.53;5008806;28;20175;-78
2024/01/02 05:46:18;;;;;;;0.30;0.30;;;;;;;5.52;96.44;94228.69;5009622;28;20293;-77
2024/01/02 05:48:44;;;;;;;0.20;0.20;;;;;;;5.49;97.11;94226.41;5006536;28;20683;-76
2024/01/02 05:51:09;;;;;;;0.60;0.30;;;;;;;5.76;95.93;94222.91;5007810;28;20187;-77
2024/01/02 05:53:35;;;;;;;0.20;0.20;;;;;;;5.83;95.07;94216.16;5024085;28;20206;-75
2024/01/02 05:56:01;;;;;;;0.20;0.20;;;;;;;5.50;96.04;94220.28;5021678;28;20214;-77
2024/01/02 05:58:26;;;;;;;0.30;0.30;;;;;;;5.61;96.77;94205.41;5020063;28;20210;-77
2024/01/02 06:00:51;;;;;;;0.20;0.20;;;;;;;5.85;95.86;94196.25;5006025;28;20669;-78
2024/01/02 06:03:17;;;;;;;0.30;0.30;;;;;;;5.61;97.55;94191.72;5022715;28;20182;-78
2024/01/02 06:05:43;;;;;;;2.03;0.30;;;;;;;5.88;95.54;94201.06;5009381;28;20226;-77
2024/01/02 06:08:09;;;;;;;0.20;0.20;;;;;;;5.74;96.59;94196.47;5003008;28;20202;-77
2024/01/02 06:10:34;;;;;;;1.03;0.20;;;;;;;5.64;96.06;94209.44;5021776;28;20183;-77
2024/01/02 06:12:59;;;;;;;0.30;0.30;;;;;;;5.91;95.31;94198.22;5021546;28;20318;-75
2024/01/02 06:15:25;;;;;;;0.20;0.20;;;;;;;6.02;94.46;94194.59;5026729;28;20182;-77
2024/01/02 06:17:52;;;;;;;0.20;0.20;;;;;;;5.86;95.57;94200.44;5022435;28;20230;-76
2024/01/02 06:20:17;;;;;;;0.30;0.30;;;;;;;5.81;95.93;94197.47;5021846;28;20191;-77
2024/01/02 06:22:42;;;;;;;0.20;0.20;;;;;;;5.96;94.94;94201.97;5022200;28;20182;-77
2024/01/02 06:25:08;;;;;;;0.30;0.30;;;;;;;5.88;95.04;94196.72;5022038;28;20266;-78
2024/01/02 06:27:34;;;;;;;0.50;0.20;;;;;;;6.08;94.93;94181.88;5021895;28;20584;-77
2024/01/02 06:29:59;;;;;;;0.17;0.17;;;;;;;6.07;95.62;94182.03;5009025;28;20183;-77
2024/01/02 06:32:25;;;;;;;0.30;0.30;;;;;;;5.88;96.17;94178.69;5023113;28;20548;-78
2024/01/02 06:34:50;;;;;;;0.30;0.30;;;;;;;5.89;95.57;94171.78;5022050;28;20261;-77
2024/01/02 06:37:17;;;;;;;0.30;0.30;;;;;;;5.83;96.29;94165.47;5004168;28;20218;-77
2024/01/02 06:39:42;;;;;;;0.20;0.20;;;;;;;5.92;95.51;94161.22;5008312;28;20209;-78
2024/01/02 06:42:08;;;;;;;0.20;0.20;;;;;;;5.96;95.15;94163.31;5006586;28;20246;-77
2024/01/02 06:44:33;;;;;;;0.20;0.20;;;;;;;5.99;94.88;94164.78;5004177;28;20186;-77
2024/01/02 06:46:58;;;;;;;0.30;0.30;;;;;;;6.13;94.95;94171.13;5023169;28;20210;-78
2024/01/02 06:49:24;;;;;;;0.20;0.10;;;;;;;6.09;95.31;94159.50;5007591;28;20189;-77
2024/01/02 06:51:49;;;;;;;0.20;0.20;;;;;;;6.18;94.50;94158.56;5021517;28;20184;-77
2024/01/02 06:54:14;;;;;;;0.20;0.20;;;;;;;6.05;94.41;94169.31;5023709;28;20230;-78
2024/01/02 06:56:40;;;;;;;0.33;0.33;;;;;;;6.22;94.23;94160.69;5023208;28;20187;-78
2024/01/02 06:59:06;;;;;;;0.30;0.30;;;;;;;6.30;94.36;94162.50;5005961;28;20222;-78
2024/01/02 07:01:32;;;;;;;0.23;0.23;;;;;;;6.22;94.87;94157.31;5021598;28;20278;-77
2024/01/02 07:03:57;;;;;;;0.20;0.20;;;;;;;6.14;95.07;94162.44;5025012;28;20273;-77
2024/01/02 07:06:22;;;;;;;0.10;0.10;;;;;;;6.07;95.34;94162.22;5025519;28;20210;-78
2024/01/02 07:08:48;;;;;;;0.20;0.20;;;;;;;6.17;94.73;94162.13;5022621;28;20199;-77
2024/01/02 07:11:13;;;;;;;0.40;0.40;;;;;;;6.18;94.44;94171.47;5004429;28;20691;-77
2024/01/02 07:13:38;;;;;;;0.30;0.30;;;;;;;6.21;94.26;94160.88;5005882;28;20192;-78
2024/01/02 07:16:04;;;;;;;0.20;0.20;;;;;;;6.17;94.93;94157.75;5024964;28;20210;-76
2024/01/02 07:18:30;;;;;;;0.23;0.23;;;;;;;6.35;93.72;94162.84;5020944;28;20199;-77
2024/01/02 07:20:56;;;;;;;0.20;0.20;;;;;;;6.35;94.17;94177.50;5004107;28;20183;-78
2024/01/02 07:23:22;;;;;;;0.30;0.30;;;;;;;6.24;94.01;94173.44;5022331;28;20179;-76
2024/01/02 07:25:47;;;;;;;0.60;0.30;;;;;;;6.34;93.70;94174.13;5017647;28;20183;-76
2024/01/02 07:28:13;;;;;;;0.20;0.20;;;;;;;6.29;94.63;94171.22;5021584;28;20668;-77
2024/01/02 07:30:38;;;;;;;1.30;0.27;;;;;;;6.36;93.93;94171.38;5006540;28;20649;-77
2024/01/02 07:33:03;;;;;;;0.20;0.20;;;;;;;6.34;94.28;94174.13;5021114;28;20245;-78
2024/01/02 07:35:29;;;;;;;0.37;0.37;;;;;;;6.72;92.65;94192.63;5020587;28;20233;-77
2024/01/02 07:37:54;;;;;;;0.17;0.17;;;;;;;6.38;94.79;94190.91;5003459;28;20206;-77
2024/01/02 07:40:19;;;;;;;1.07;0.20;;;;;;;6.61;93.72;94193.72;5009210;28;20209;-78
2024/01/02 07:42:45;;;;;;;0.27;0.20;;;;;;;6.44;94.54;94192.03;5020742;28;20179;-77
2024/01/02 07:45:10;;;;;;;0.20;0.20;;;;;;;6.23;94.95;94205.34;5021074;28;20179;-77
2024/01/02 07:47:36;;;;;;;0.30;0.30;;;;;;;6.38;94.82;94185.75;5020143;28;20217;-77
2024/01/02 07:50:04;;;;;;;1.40;0.70;;;;;;;6.67;93.43;94203.41;5005897;28;20222;-78
2024/01/02 07:52:30;;;;;;;0.43;0.43;;;;;;;6.63;93.77;94209.06;5018794;28;20180;-78
2024/01/02 07:54:55;;;;;;;0.70;0.70;;;;;;;6.74;93.24;94201.03;5004879;28;20206;-78
2024/01/02 07:57:20;;;;;;;0.53;0.40;;;;;;;6.71;93.83;94203.91;5023145;28;20606;-77
2024/01/02 07:59:46;;;;;;;1.73;1.23;;;;;;;6.52;95.16;94194.66;5005066;28;20182;-76
2024/01/02 08:02:11;;;;;;;0.70;0.70;;;;;;;6.57;94.50;94196.78;5019221;28;20210;-77
2024/01/02 08:04:36;;;;;;;1.60;1.50;;;;;;;6.86;93.13;94204.91;5008419;28;20201;-78
2024/01/02 08:07:02;;;;;;;0.80;0.80;;;;;;;6.87;93.33;94185.88;5022911;28;20230;-77
2024/01/02 08:09:27;;;;;;;0.30;0.30;;;;;;;6.88;93.63;94191.84;5020767;28;20194;-78
2024/01/02 08:11:53;;;;;;;1.37;0.40;;;;;;;6.70;94.08;94177.28;5021139;28;20621;-78
2024/01/02 08:14:19;;;;;;;0.23;0.23;;;;;;;6.79;94.14;94188.44;5025196;28;20286;-77
2024/01/02 08:16:44;;;;;;;0.30;0.30;;;;;;;6.81;93.85;94192.50;5002878;28;20179;-77
2024/01/02 08:19:09;;;;;;;0.30;0.30;;;;;;;6.73;94.72;94202.00;5005638;28;20183;-78
2024/01/02 08:21:35;;;;;;;0.73;0.60;;;;;;;7.00;93.03;94195.75;5041529;28;20183;-78
2024/01/02 08:24:00;;;;;;;0.60;0.50;;;;;;;6.88;93.98;94199.59;5004375;28;20171;-77
2024/01/02 08:26:26;;;;;;;0.40;0.33;;;;;;;6.93;93.46;94197.34;5007140;28;20171;-78
2024/01/02 08:28:51;;;;;;;0.20;0.20;;;;;;;6.76;94.50;94204.25;5020214;28;20261;-77
2024/01/02 08:31:16;;;;;;;0.20;0.20;;;;;;;7.09;92.80;94193.03;5014751;28;20235;-77
2024/01/02 08:33:42;;;;;;;0.20;0.20;;;;;;;6.88;94.36;94194.44;5020451;28;20195;-77
2024/01/02 08:36:11;;;;;;;0.77;0.47;;;;;;;6.90;94.35;94195.91;5004568;28;20185;-78
2024/01/02 08:38:36;;;;;;;0.20;0.20;;;;;;;6.95;93.92;94185.91;5021012;28;20290;-78
2024/01/02 08:41:02;;;;;;;0.40;0.30;;;;;;;6.80;94.28;94187.47;5022409;28;20216;-77
2024/01/02 08:43:27;;;;;;;0.30;0.30;;;;;;;7.11;93.29;94182.53;5017709;28;20267;-78
2024/01/02 08:45:53;;;;;;;0.20;0.20;;;;;;;6.85;94.44;94167.19;5003708;28;20193;-78
2024/01/02 08:48:18;;;;;;;0.27;0.27;;;;;;;6.77;95.24;94172.31;5019819;28;20209;-78
2024/01/02 08:50:43;;;;;;;0.30;0.30;;;;;;;6.98;94.98;94188.19;5023132;28;20210;-78
2024/01/02 08:53:12;;;;;;;0.37;0.20;;;;;;;6.92;93.70;94173.31;5019310;28;20209;-78
2024/01/02 08:55:38;;;;;;;0.93;0.20;;;;;;;7.01;94.16;94192.22;5007120;28;20184;-78
2024/01/02 08:58:04;;;;;;;0.30;0.30;;;;;;;7.12;92.86;94196.25;5004899;28;20799;-79
2024/01/02 09:00:30;;;;;;;0.20;0.20;;;;;;;7.02;93.00;94173.19;5023931;28;20211;-77
2024/01/02 09:02:55;;;;;;;0.30;0.30;;;;;;;7.36;91.70;94184.19;5004830;28;20194;-77
2024/01/02 09:05:21;;;;;;;0.20;0.20;;;;;;;7.39;91.79;94188.22;5010944;28;20199;-78
2024/01/02 09:07:46;;;;;;;0.30;0.20;;;;;;;7.55;91.47;94206.31;5021334;28;20266;-78
2024/01/02 09:10:12;;;;;;;0.20;0.20;;;;;;;7.34;92.59;94196.47;5021348;28;20196;-77
2024/01/02 09:12:37;;;;;;;0.40;0.40;;;;;;;7.52;91.34;94206.63;5022750;28;20191;-77
2024/01/02 09:15:03;;;;;;;0.30;0.30;;;;;;;7.53;91.46;94208.25;5022120;28;20203;-78
2024/01/02 09:17:28;;;;;;;0.33;0.33;;;;;;;7.30;92.51;94208.06;5022798;28;20592;-78
2024/01/02 09:19:53;;;;;;;0.30;0.30;;;;;;;7.71;90.75;94221.00;5020740;28;20653;-77
2024/01/02 09:22:19;;;;;;;0.30;0.30;;;;;;;7.52;91.54;94214.38;5024413;28;20213;-76
2024/01/02 09:24:45;;;;;;;0.80;0.30;;;;;;;7.76;90.77;94228.25;5024667;28;20209;-78
2024/01/02 09:27:13;;;;;;;0.30;0.30;;;;;;;7.50;92.07;94218.88;5006589;28;20229;-77
2024/01/02 09:29:38;;;;;;;0.33;0.33;;;;;;;7.58;91.89;94218.88;5026203;28;20179;-77
2024/01/02 09:32:04;;;;;;;0.40;0.40;;;;;;;7.70;90.95;94239.25;5023064;28;20191;-78
2024/01/02 09:34:29;;;;;;;0.20;0.20;;;;;;;7.78;90.90;94231.50;5037955;28;20210;-77
2024/01/02 09:36:55;;;;;;;0.33;0.33;;;;;;;7.72;91.97;94237.31;5004134;28;20223;-78
2024/01/02 09:39:21;;;;;;;0.30;0.20;;;;;;;7.79;91.01;94220.19;5024742;28;20195;-78
2024/01/02 09:42:17;;;;;;;1.33;1.23;;;;;;;8.03;90.72;94225.31;5004052;28;20214;-78
2024/01/02 09:44:45;;;;;;;0.77;0.60;;;;;;;8.01;90.42;94232.44;5021915;28;20191;-77
2024/01/02 09:47:17;;;;;;;1.87;1.27;;;;;;;7.91;91.01;94234.38;5028309;28;20275;-77
2024/01/02 09:49:58;;;;;;;5.07;2.83;;;;;;;7.83;90.80;94229.22;5027886;28;20256;-77
2024/01/02 09:52:27;;;;;;;0.40;0.40;;;;;;;8.09;89.94;94242.75;5023297;28;20211;-77
2024/01/02 09:55:04;;;;;;;2.03;0.90;;;;;;;8.18;90.07;94249.53;5025122;28;20206;-78
2024/01/02 09:58:09;;;;;;;0.40;0.40;;;;;;;8.15;90.17;94249.88;5022509;28;20835;-77
2024/01/02 10:01:03;;;;;;;0.30;0.30;;;;;;;8.06;90.73;94242.28;5000391;28;20199;-77
2024/01/02 10:03:51;;;;;;;0.30;0.30;;;;;;;8.18;90.63;94239.19;5022994;28;20277;-77
2024/01/02 10:06:45;;;;;;;0.40;0.40;;;;;;;8.14;90.29;94250.03;5009975;28;20612;-77
2024/01/02 10:09:32;;;;;;;0.20;0.20;;;;;;;8.08;90.26;94254.06;5019189;28;20276;-79
2024/01/02 10:12:30;;;;;;;0.50;0.50;;;;;;;8.24;89.63;94248.06;5012107;28;20191;-78
2024/01/02 10:15:01;;;;;;;0.27;0.27;;;;;;;8.16;90.65;94240.34;5023092;28;20218;-77
2024/01/02 10:17:50;;;;;;;0.97;0.40;;;;;;;8.17;90.75;94247.91;5014156;28;20234;-79
2024/01/02 10:20:31;;;;;;;0.40;0.40;;;;;;;8.23;89.95;94244.69;5018226;28;20184;-77
2024/01/02 10:23:10;;;;;;;0.40;0.40;;;;;;;8.04;90.58;94239.03;5022092;28;20187;-77
2024/01/02 10:25:36;;;;;;;0.50;0.50;;;;;;;8.48;89.68;94224.78;5021994;28;20679;-77
2024/01/02 10:28:08;;;;;;;0.50;0.50;;;;;;;8.21;90.81;94222.53;5021286;28;20222;-77
2024/01/02 10:30:41;;;;;;;0.47;0.47;;;;;;;7.95;91.67;94222.72;5041824;28;20183;-77
2024/01/02 10:33:43;;;;;;;0.53;0.53;;;;;;;8.35;90.67;94214.13;5013557;28;20179;-77
2024/01/02 10:36:12;;;;;;;0.30;0.30;;;;;;;8.08;91.16;94224.81;5036106;28;20289;-78
2024/01/02 10:39:08;;;;;;;0.40;0.40;;;;;;;8.29;90.51;94219.13;5019448;28;20222;-77
2024/01/02 10:41:58;;;;;;;0.40;0.40;;;;;;;8.23;90.50;94218.81;5033358;28;20201;-78
2024/01/02 10:44:38;;;;;;;1.13;0.50;;;;;;;8.18;91.33;94208.16;5036373;28;20179;-77
2024/01/02 10:47:10;;;;;;;0.30;0.30;;;;;;;8.04;91.34;94210.59;5001426;28;20225;-78
2024/01/02 10:49:52;;;;;;;0.20;0.20;;;;;;;8.00;91.64;94202.38;4999723;28;20186;-77
2024/01/02 10:52:34;;;;;;;0.33;0.30;;;;;;;8.07;90.70;94194.78;5014428;28;20211;-78
2024/01/02 10:55:08;;;;;;;0.37;0.30;;;;;;;8.19;90.57;94189.06;5029469;28;20684;-78
2024/01/02 10:58:07;;;;;;;0.30;0.20;;;;;;;8.54;89.76;94183.66;5029427;28;20621;-78
2024/01/02 11:00:39;;;;;;;0.40;0.40;;;;;;;8.33;89.97;94184.19;5034901;28;20256;-77
2024/01/02 11:03:10;;;;;;;0.50;0.30;;;;;;;8.48;89.49;94191.13;5033859;28;20182;-78
2024/01/02 11:05:44;;;;;;;0.40;0.40;;;;;;;8.31;89.63;94183.56;5031076;28;20198;-77
2024/01/02 11:08:20;;;;;;;0.30;0.30;;;;;;;8.45;89.32;94193.22;5003121;28;20215;-78
2024/01/02 11:11:01;;;;;;;1.03;0.90;;;;;;;8.34;90.60;94172.88;5000570;28;20178;-78
2024/01/02 11:13:27;;;;;;;0.60;0.50;;;;;;;8.64;88.92;94160.97;5026312;28;20215;-78
2024/01/02 11:15:56;;;;;;;0.40;0.40;;;;;;;8.48;90.40;94151.50;5027001;28;20179;-78
2024/01/02 11:18:24;;;;;;;0.40;0.40;;;;;;;8.53;88.73;94141.47;5023611;28;20195;-78
2024/01/02 11:20:57;;;;;;;0.50;0.50;;;;;;;8.41;89.33;94145.41;5023327;28;20282;-77
2024/01/02 11:23:26;;;;;;;0.70;0.70;;;;;;;8.65;89.07;94145.25;5002558;28;20183;-77
2024/01/02 11:25:59;;;;;;;0.50;0.30;;;;;;;8.40;89.52;94133.44;5021083;28;20183;-77
2024/01/02 11:28:25;;;;;;;0.97;0.70;;;;;;;8.85;88.36;94124.94;5019282;28;20234;-78
2024/01/02 11:30:51;;;;;;;1.20;0.40;;;;;;;8.42;89.38;94141.84;5020646;28;20191;-77
2024/01/02 11:33:35;;;;;;;0.60;0.60;;;;;;;8.58;89.05;94123.66;5016375;28;20215;-78
2024/01/02 11:36:08;;;;;;;0.67;0.60;;;;;;;8.69;88.73;94119.88;5022963;28;20187;-78
2024/01/02 11:38:40;;;;;;;0.40;0.30;;;;;;;8.58;89.10;94108.13;5021681;28;20864;-77
2024/01/02 11:41:28;;;;;;;0.30;0.20;;;;;;;8.83;88.26;94120.91;5022699;28;20592;-78
2024/01/02 11:44:07;;;;;;;0.30;0.30;;;;;;;8.95;88.46;94112.59;5005495;28;20183;-77